createdAt,value
2023-02-26T00:00:31.912Z,2.13
2023-02-26T00:02:59.063Z,1.80
2023-02-26T00:05:26.052Z,1.35
2023-02-26T00:07:53.650Z,1.70
2023-02-26T00:10:20.774Z,1.63
2023-02-26T00:12:47.879Z,1.80
2023-02-26T00:27:23.691Z,2.10
2023-02-26T00:32:18.321Z,1.90
2023-02-26T00:34:46.147Z,2.08
2023-02-26T00:40:12.323Z,1.80
2023-02-26T00:42:39.639Z,1.65
2023-02-26T00:45:07.145Z,1.88
2023-02-26T00:47:40.633Z,2.22
2023-02-26T00:50:13.894Z,2.13
2023-02-26T00:52:59.973Z,2.47
2023-02-26T00:55:28.485Z,2.38
2023-02-26T00:57:56.127Z,2.55
2023-02-26T01:00:23.271Z,2.80
2023-02-26T01:02:51.242Z,2.90
2023-02-26T01:05:18.348Z,2.47
2023-02-26T01:07:57.608Z,2.20
2023-02-26T01:10:24.818Z,2.28
2023-02-26T01:12:52.456Z,2.30
2023-02-26T01:15:19.683Z,2.20
2023-02-26T01:17:50.588Z,2.25
2023-02-26T01:22:55.232Z,2.33
2023-02-26T01:27:51.526Z,2.22
2023-02-26T01:30:18.994Z,2.58
2023-02-26T01:35:37.742Z,2.50
2023-02-26T01:40:54.901Z,2.50
2023-02-26T01:43:47.944Z,2.80
2023-02-26T01:51:43.163Z,2.30
2023-02-26T01:54:10.139Z,2.22
2023-02-26T01:56:37.747Z,2.00
2023-02-26T01:59:06.356Z,2.50
2023-02-26T02:01:33.966Z,2.55
2023-02-26T02:04:01.087Z,2.30
2023-02-26T02:08:54.612Z,3.35
2023-02-26T02:11:23.185Z,2.60
2023-02-26T02:24:50.918Z,2.80
2023-02-26T02:27:17.781Z,2.33
2023-02-26T02:29:49.362Z,2.72
2023-02-26T02:35:03.889Z,2.65
2023-02-26T02:37:34.714Z,2.38
2023-02-26T02:40:07.959Z,2.10
2023-02-26T02:45:21.178Z,2.58
2023-02-26T02:47:53.075Z,2.75
2023-02-26T02:55:55.521Z,2.67
2023-02-26T02:58:28.042Z,3.95
2023-02-26T03:11:01.192Z,5.00
2023-02-26T03:13:28.175Z,3.45
2023-02-26T03:16:04.013Z,2.40
2023-02-26T03:20:58.954Z,2.90
2023-02-26T03:36:06.972Z,2.58
2023-02-26T03:38:35.897Z,3.13
2023-02-26T03:43:49.503Z,3.15
2023-02-26T03:48:51.482Z,2.47
2023-02-26T03:51:20.349Z,2.67
2023-02-26T03:56:38.098Z,2.75
2023-02-26T03:59:04.980Z,2.95
2023-02-26T04:01:55.640Z,2.35
2023-02-26T04:04:43.760Z,2.80
2023-02-26T04:09:37.782Z,2.63
2023-02-26T04:12:05.052Z,3.25
2023-02-26T04:16:57.900Z,2.20
2023-02-26T04:19:25.184Z,2.42
2023-02-26T04:21:53.054Z,2.38
2023-02-26T04:24:20.149Z,2.67
2023-02-26T04:26:47.799Z,2.47
2023-02-26T04:29:14.795Z,2.10
2023-02-26T04:31:42.265Z,2.38
2023-02-26T04:34:09.092Z,2.42
2023-02-26T04:39:01.733Z,2.78
2023-02-26T04:41:30.494Z,2.33
2023-02-26T04:43:57.646Z,2.42
2023-02-26T04:46:30.425Z,2.85
2023-02-26T04:48:57.274Z,2.65
2023-02-26T04:51:24.184Z,3.03
2023-02-26T04:53:52.360Z,2.45
2023-02-26T04:56:20.012Z,2.45
2023-02-26T04:58:46.758Z,2.50
2023-02-26T05:01:18.614Z,3.55
2023-02-26T05:03:45.587Z,2.85
2023-02-26T05:06:12.667Z,2.83
2023-02-26T05:08:42.356Z,2.45
2023-02-26T05:11:10.211Z,3.00
2023-02-26T05:16:02.775Z,2.90
2023-02-26T05:18:29.858Z,3.15
2023-02-26T05:20:57.261Z,2.35
2023-02-26T05:23:24.393Z,2.70
2023-02-26T05:25:51.344Z,2.88
2023-02-26T05:30:44.933Z,3.20
2023-02-26T05:33:12.304Z,2.50
2023-02-26T05:35:39.427Z,3.10
2023-02-26T05:45:22.974Z,2.72
2023-02-26T05:47:50.106Z,2.90
2023-02-26T05:50:17.073Z,2.97
2023-02-26T05:52:44.150Z,2.50
2023-02-26T05:55:10.998Z,2.47
2023-02-26T05:57:38.012Z,2.58
2023-02-26T06:00:06.932Z,2.55
2023-02-26T06:02:39.859Z,2.67
2023-02-26T06:05:07.285Z,2.58
2023-02-26T06:07:34.265Z,3.00
2023-02-26T06:10:01.669Z,2.60
2023-02-26T06:12:28.540Z,2.53
2023-02-26T06:14:55.758Z,2.50
2023-02-26T06:17:22.690Z,2.65
2023-02-26T06:19:49.672Z,2.60
2023-02-26T06:22:16.530Z,2.70
2023-02-26T06:24:43.687Z,2.88
2023-02-26T06:27:10.701Z,2.83
2023-02-26T06:29:37.823Z,2.25
2023-02-26T06:32:05.689Z,2.63
2023-02-26T06:34:32.788Z,2.58
2023-02-26T06:36:59.763Z,2.58
2023-02-26T06:39:26.809Z,2.38
2023-02-26T06:41:53.694Z,2.00
2023-02-26T06:44:20.664Z,2.22
2023-02-26T06:46:47.574Z,2.85
2023-02-26T06:54:06.199Z,3.70
2023-02-26T07:06:26.931Z,2.13
2023-02-26T07:08:55.131Z,2.22
2023-02-26T07:11:22.155Z,2.70
2023-02-26T07:13:48.939Z,1.85
2023-02-26T07:16:15.833Z,1.92
2023-02-26T07:18:42.804Z,1.58
2023-02-26T07:21:10.077Z,2.35
2023-02-26T07:23:36.958Z,2.10
2023-02-26T07:26:03.938Z,2.10
2023-02-26T07:28:30.829Z,2.10
2023-02-26T07:30:58.284Z,3.08
2023-02-26T07:33:26.872Z,2.22
2023-02-26T07:35:54.044Z,2.30
2023-02-26T07:38:21.542Z,3.00
2023-02-26T07:40:48.769Z,2.40
2023-02-26T07:43:15.772Z,2.15
2023-02-26T07:45:42.891Z,2.55
2023-02-26T07:48:10.214Z,2.85
2023-02-26T07:50:37.271Z,2.20
2023-02-26T07:57:55.657Z,2.28
2023-02-26T08:00:22.838Z,2.20
2023-02-26T08:02:49.889Z,2.28
2023-02-26T08:05:16.726Z,2.17
2023-02-26T08:10:09.818Z,2.25
2023-02-26T08:12:37.141Z,2.55
2023-02-26T08:15:04.796Z,2.53
2023-02-26T08:28:02.064Z,2.50
2023-02-26T08:30:29.384Z,2.20
2023-02-26T08:32:56.412Z,2.10
2023-02-26T08:42:43.010Z,2.20
2023-02-26T08:45:10.362Z,1.98
2023-02-26T08:47:42.420Z,1.85
2023-02-26T08:50:12.536Z,2.05
2023-02-26T08:52:40.390Z,1.63
2023-02-26T08:55:07.587Z,1.40
2023-02-26T09:07:25.969Z,0.80
2023-02-26T09:10:05.976Z,1.30
2023-02-26T09:17:28.112Z,0.85
2023-02-26T09:20:02.600Z,0.70
2023-02-26T09:22:29.887Z,1.00
2023-02-26T09:24:57.527Z,1.77
2023-02-26T09:27:25.414Z,0.57
2023-02-26T09:37:13.808Z,1.00
2023-02-26T09:39:40.960Z,1.10
2023-02-26T09:45:06.299Z,1.50
2023-02-26T09:47:44.812Z,1.60
2023-02-26T09:50:13.636Z,1.58
2023-02-26T09:52:47.335Z,2.05
2023-02-26T09:55:30.407Z,1.50
2023-02-26T09:58:02.136Z,1.40
2023-02-26T10:00:31.406Z,1.00
2023-02-26T10:05:47.688Z,1.40
2023-02-26T10:08:20.634Z,0.85
2023-02-26T10:11:07.758Z,1.30
2023-02-26T10:13:57.485Z,0.90
2023-02-26T10:16:30.064Z,0.82
2023-02-26T10:19:04.786Z,0.73
2023-02-26T10:21:34.557Z,0.80
2023-02-26T10:34:24.383Z,1.00
2023-02-26T10:36:58.821Z,1.02
2023-02-26T10:39:25.714Z,1.00
2023-02-26T10:41:59.179Z,0.63
2023-02-26T10:57:22.365Z,0.85
2023-02-26T10:59:55.487Z,0.50
2023-02-26T11:15:15.547Z,0.40
2023-02-26T11:17:42.462Z,0.57
2023-02-26T11:22:55.142Z,0.57
2023-02-26T11:25:24.120Z,0.60
2023-02-26T11:30:20.288Z,0.57
2023-02-26T11:32:53.619Z,0.40
2023-02-26T11:35:23.172Z,0.43
2023-02-26T11:37:53.075Z,0.77
2023-02-26T11:40:20.196Z,0.50
2023-02-26T11:42:58.557Z,0.30
2023-02-26T11:45:26.042Z,0.30
2023-02-26T11:55:28.840Z,0.50
2023-02-26T11:57:56.945Z,0.63
2023-02-26T12:00:25.853Z,0.40
2023-02-26T12:12:55.899Z,0.80
2023-02-26T12:15:41.433Z,0.50
2023-02-26T12:26:04.541Z,0.43
2023-02-26T12:33:46.578Z,0.50
2023-02-26T12:36:22.007Z,0.80
2023-02-26T12:57:01.264Z,0.65
2023-02-26T12:59:40.950Z,0.93
2023-02-26T13:02:25.268Z,0.80
2023-02-26T13:07:32.840Z,0.47
2023-02-26T13:12:33.123Z,0.60
2023-02-26T13:18:02.019Z,0.65
2023-02-26T13:20:30.588Z,0.65
2023-02-26T13:23:02.713Z,0.77
2023-02-26T13:25:37.322Z,0.80
2023-02-26T13:28:07.047Z,0.70
2023-02-26T13:30:36.538Z,0.50
2023-02-26T13:43:00.969Z,0.70
2023-02-26T13:47:56.700Z,0.52
2023-02-26T13:50:29.546Z,0.65
2023-02-26T13:53:02.949Z,0.70
2023-02-26T13:55:46.733Z,0.63
2023-02-26T13:58:17.444Z,0.75
2023-02-26T14:00:48.448Z,1.05
2023-02-26T14:03:18.425Z,0.57
2023-02-26T14:05:48.306Z,0.60
2023-02-26T14:08:18.676Z,0.75
2023-02-26T14:10:47.111Z,1.15
2023-02-26T14:20:47.019Z,0.60
2023-02-26T14:25:51.084Z,0.70
2023-02-26T14:28:21.113Z,0.52
2023-02-26T14:30:50.570Z,0.77
2023-02-26T14:38:31.193Z,1.13
2023-02-26T14:43:43.689Z,0.80
2023-02-26T14:48:36.981Z,0.60
2023-02-26T14:59:22.352Z,0.85
2023-02-26T15:02:16.763Z,0.85
2023-02-26T15:05:10.615Z,0.50
2023-02-26T15:07:56.674Z,0.90
2023-02-26T15:10:29.598Z,0.80
2023-02-26T15:13:14.957Z,1.17
2023-02-26T15:26:26.807Z,1.00
2023-02-26T15:38:55.202Z,0.55
2023-02-26T15:41:23.766Z,0.73
2023-02-26T15:43:52.940Z,1.05
2023-02-26T15:46:21.194Z,0.80
2023-02-26T15:51:14.920Z,0.50
2023-02-26T15:59:00.038Z,0.75
2023-02-26T16:01:29.328Z,0.40
2023-02-26T16:04:01.344Z,0.43
2023-02-26T16:06:30.528Z,1.20
2023-02-26T16:08:58.389Z,0.43
2023-02-26T16:11:27.638Z,0.60
2023-02-26T16:13:54.565Z,1.50
2023-02-26T16:16:26.678Z,0.73
2023-02-26T16:21:24.110Z,0.82
2023-02-26T16:23:52.862Z,0.50
2023-02-26T16:31:42.143Z,0.57
2023-02-26T16:34:30.554Z,0.93
2023-02-26T16:37:00.328Z,0.65
2023-02-26T16:39:30.686Z,0.80
2023-02-26T16:42:15.330Z,0.70
2023-02-26T16:44:50.977Z,0.73
2023-02-26T16:54:42.110Z,0.60
2023-02-26T16:57:14.275Z,0.80
2023-02-26T16:59:43.718Z,0.77
2023-02-26T17:02:22.494Z,0.82
2023-02-26T17:09:53.179Z,0.80
2023-02-26T17:12:21.642Z,0.73
2023-02-26T17:14:59.253Z,0.70
2023-02-26T17:17:27.071Z,0.65
2023-02-26T17:19:53.946Z,0.98
2023-02-26T17:22:26.215Z,0.90
2023-02-26T17:30:13.915Z,0.82
2023-02-26T17:32:41.251Z,1.13
2023-02-26T17:37:36.314Z,1.10
2023-02-26T17:40:05.035Z,0.75
2023-02-26T17:42:32.161Z,1.08
2023-02-26T17:44:59.608Z,1.13
2023-02-26T17:47:27.111Z,0.88
2023-02-26T17:57:48.712Z,0.82
2023-02-26T18:02:42.273Z,0.90
2023-02-26T18:05:09.292Z,1.50
2023-02-26T18:29:35.823Z,1.35
2023-02-26T18:32:03.937Z,1.63
2023-02-26T18:34:31.076Z,1.20
2023-02-26T18:36:57.937Z,1.33
2023-02-26T18:39:27.723Z,0.93
2023-02-26T18:41:54.730Z,1.73
2023-02-26T18:51:43.368Z,1.42
2023-02-26T18:54:13.179Z,1.15
2023-02-26T18:56:39.981Z,1.30
2023-02-26T18:59:06.984Z,1.20
2023-02-26T19:02:17.714Z,1.13
2023-02-26T19:07:10.262Z,1.85
2023-02-26T19:09:37.505Z,1.02
2023-02-26T19:12:20.350Z,1.33
2023-02-26T19:14:47.957Z,1.73
2023-02-26T19:17:15.434Z,1.50
2023-02-26T19:22:12.962Z,1.45
2023-02-26T19:34:40.388Z,1.40
2023-02-26T19:37:07.516Z,1.33
2023-02-26T19:46:53.645Z,2.55
2023-02-26T19:49:20.618Z,3.17
2023-02-26T19:51:47.657Z,2.85
2023-02-26T19:54:14.771Z,1.73
2023-02-26T19:56:42.381Z,1.77
2023-02-26T19:59:09.531Z,1.45
2023-02-26T20:11:53.949Z,1.60
2023-02-26T20:14:22.109Z,1.38
2023-02-26T20:19:14.832Z,1.50
2023-02-26T20:21:42.090Z,2.35
2023-02-26T20:24:09.342Z,0.85
2023-02-26T20:26:36.313Z,1.90
2023-02-26T20:29:03.662Z,1.73
2023-02-26T20:31:31.013Z,1.70
2023-02-26T20:33:58.794Z,2.22
2023-02-26T20:36:26.153Z,1.33
2023-02-26T20:38:53.258Z,1.80
2023-02-26T20:43:45.974Z,2.33
2023-02-26T20:46:13.345Z,2.28
2023-02-26T20:56:00.252Z,2.05
2023-02-26T20:58:28.238Z,2.05
2023-02-26T21:00:56.416Z,2.85
2023-02-26T21:03:23.319Z,1.88
2023-02-26T21:05:51.389Z,3.55
2023-02-26T21:08:19.207Z,4.90
2023-02-26T21:10:46.480Z,2.85
2023-02-26T21:13:14.080Z,4.70
2023-02-26T21:15:41.425Z,3.95
2023-02-26T21:33:20.018Z,2.38
2023-02-26T21:38:19.868Z,0.98
2023-02-26T21:45:39.053Z,2.00
2023-02-26T21:48:06.233Z,1.40
2023-02-26T21:50:33.573Z,1.45
2023-02-26T21:53:00.613Z,1.35
2023-02-26T21:55:27.610Z,1.60
2023-02-26T21:57:54.607Z,1.80
2023-02-26T22:00:21.953Z,1.50
2023-02-26T22:02:49.132Z,1.92
2023-02-26T22:10:08.188Z,2.05
2023-02-26T22:19:51.900Z,2.00
2023-02-26T22:27:10.767Z,1.92
2023-02-26T22:37:33.424Z,1.38
2023-02-26T22:40:00.431Z,1.90
2023-02-26T22:42:27.342Z,1.90
2023-02-26T22:44:54.244Z,1.98
2023-02-26T22:47:21.209Z,2.25
2023-02-26T22:49:48.968Z,3.05
2023-02-26T23:08:06.198Z,1.92
2023-02-26T23:10:33.159Z,1.63
2023-02-26T23:13:02.296Z,1.80
2023-02-26T23:15:29.392Z,11.32
2023-02-26T23:17:56.471Z,2.33
2023-02-26T23:20:23.357Z,1.77
2023-02-26T23:22:50.112Z,3.17
2023-02-26T23:25:17.126Z,2.30
2023-02-26T23:27:43.849Z,1.98
2023-02-26T23:37:27.802Z,1.95
2023-02-26T23:39:54.944Z,1.83
2023-02-26T23:42:21.958Z,1.23
2023-02-26T23:44:49.681Z,1.52
2023-02-26T23:47:16.761Z,1.50
2023-02-26T23:49:43.688Z,1.95
2023-02-26T23:54:36.126Z,2.10
2023-02-26T23:57:03.270Z,1.60
